createdAt,value
2022-09-10T00:01:06.351Z,13.59
2022-09-10T00:03:23.195Z,13.59
2022-09-10T00:05:40.195Z,13.63
2022-09-10T00:07:57.088Z,13.64
2022-09-10T00:10:13.920Z,13.64
2022-09-10T00:12:30.807Z,13.69
2022-09-10T00:14:47.719Z,13.73
2022-09-10T00:17:04.592Z,13.75
2022-09-10T00:19:21.516Z,13.82
2022-09-10T00:21:38.382Z,13.79
2022-09-10T00:23:55.230Z,13.76
2022-09-10T00:26:12.052Z,13.74
2022-09-10T00:28:28.964Z,13.71
2022-09-10T00:30:45.868Z,13.71
2022-09-10T00:33:02.760Z,13.68
2022-09-10T00:35:19.578Z,13.68
2022-09-10T00:37:36.464Z,13.66
2022-09-10T00:39:53.490Z,13.65
2022-09-10T00:42:10.404Z,13.63
2022-09-10T00:44:27.243Z,13.68
2022-09-10T00:46:44.133Z,13.70
2022-09-10T00:49:01.030Z,13.69
2022-09-10T00:51:17.969Z,13.74
2022-09-10T00:53:34.864Z,13.76
2022-09-10T00:55:51.787Z,13.71
2022-09-10T00:58:08.655Z,13.70
2022-09-10T01:00:25.494Z,13.66
2022-09-10T01:02:42.390Z,13.66
2022-09-10T01:04:59.239Z,13.63
2022-09-10T01:07:16.186Z,13.62
2022-09-10T01:09:33.035Z,13.64
2022-09-10T01:11:49.878Z,13.63
2022-09-10T01:14:06.716Z,13.63
2022-09-10T01:16:23.689Z,13.65
2022-09-10T01:18:40.578Z,13.64
2022-09-10T01:20:57.431Z,13.62
2022-09-10T01:23:17.596Z,13.63
2022-09-10T01:25:34.825Z,13.61
2022-09-10T01:27:51.712Z,13.62
2022-09-10T01:30:08.590Z,13.63
2022-09-10T01:32:25.424Z,13.61
2022-09-10T01:34:42.316Z,13.60
2022-09-10T01:36:59.206Z,13.58
2022-09-10T01:39:16.053Z,13.60
2022-09-10T01:41:33.122Z,13.60
2022-09-10T01:43:49.942Z,13.58
2022-09-10T01:46:06.752Z,13.58
2022-09-10T01:48:23.634Z,13.58
2022-09-10T01:50:40.521Z,13.57
2022-09-10T01:52:57.403Z,13.59
2022-09-10T01:55:14.312Z,13.58
2022-09-10T01:57:31.165Z,13.55
2022-09-10T01:59:48.008Z,13.57
2022-09-10T02:02:04.946Z,13.62
2022-09-10T02:04:21.836Z,13.58
2022-09-10T02:06:38.738Z,13.56
2022-09-10T02:08:55.560Z,13.52
2022-09-10T02:11:12.461Z,13.50
2022-09-10T02:13:29.278Z,13.48
2022-09-10T02:15:46.134Z,13.51
2022-09-10T02:18:03.026Z,13.47
2022-09-10T02:20:19.966Z,13.53
2022-09-10T02:22:36.903Z,13.53
2022-09-10T02:24:53.784Z,13.49
2022-09-10T02:27:10.860Z,13.48
2022-09-10T02:29:27.765Z,13.42
2022-09-10T02:31:44.647Z,13.40
2022-09-10T02:34:01.498Z,13.45
2022-09-10T02:36:18.366Z,13.45
2022-09-10T02:38:35.203Z,13.41
2022-09-10T02:40:52.100Z,13.42
2022-09-10T02:43:08.933Z,13.46
2022-09-10T02:45:25.896Z,13.46
2022-09-10T02:47:42.834Z,13.47
2022-09-10T02:49:59.657Z,13.52
2022-09-10T02:52:16.678Z,13.52
2022-09-10T02:54:33.552Z,13.53
2022-09-10T02:56:50.408Z,13.59
2022-09-10T02:59:07.266Z,13.56
2022-09-10T03:01:24.129Z,13.63
2022-09-10T03:03:41.030Z,13.60
2022-09-10T03:05:57.899Z,13.58
2022-09-10T03:08:14.746Z,13.58
2022-09-10T03:10:31.600Z,13.62
2022-09-10T03:12:48.456Z,13.65
2022-09-10T03:15:05.288Z,13.66
2022-09-10T03:17:22.133Z,13.63
2022-09-10T03:19:38.965Z,13.62
2022-09-10T03:21:55.843Z,13.62
2022-09-10T03:24:15.244Z,13.69
2022-09-10T03:26:32.285Z,13.67
2022-09-10T03:28:49.147Z,13.74
2022-09-10T03:31:05.974Z,13.73
2022-09-10T03:33:22.882Z,13.71
2022-09-10T03:35:39.687Z,13.70
2022-09-10T03:37:56.569Z,13.71
2022-09-10T03:40:13.443Z,13.74
2022-09-10T03:42:30.335Z,13.72
2022-09-10T03:44:47.222Z,13.72
2022-09-10T03:47:04.129Z,13.71
2022-09-10T03:49:20.942Z,13.71
2022-09-10T03:51:37.821Z,13.74
2022-09-10T03:53:54.664Z,13.75
2022-09-10T03:56:11.565Z,13.79
2022-09-10T03:58:28.460Z,13.80
2022-09-10T04:00:45.327Z,13.87
2022-09-10T04:03:02.194Z,13.88
2022-09-10T04:05:19.039Z,13.83
2022-09-10T04:07:35.871Z,13.87
2022-09-10T04:09:52.738Z,13.95
2022-09-10T04:12:09.628Z,13.93
2022-09-10T04:14:26.520Z,13.94
2022-09-10T04:16:43.386Z,13.99
2022-09-10T04:19:00.795Z,14.03
2022-09-10T04:21:17.673Z,14.03
2022-09-10T04:23:34.503Z,14.08
2022-09-10T04:25:51.399Z,14.14
2022-09-10T04:28:08.244Z,14.13
2022-09-10T04:30:25.105Z,14.10
2022-09-10T04:32:41.960Z,14.09
2022-09-10T04:34:58.825Z,14.16
2022-09-10T04:37:19.239Z,14.17
2022-09-10T04:39:36.417Z,14.17
2022-09-10T04:41:53.333Z,14.18
2022-09-10T04:44:10.221Z,14.20
2022-09-10T04:46:27.105Z,14.18
2022-09-10T04:48:43.935Z,14.17
2022-09-10T04:51:15.751Z,14.21
2022-09-10T04:53:33.629Z,14.31
2022-09-10T04:55:50.512Z,14.29
2022-09-10T04:58:07.681Z,14.29
2022-09-10T05:00:24.566Z,14.29
2022-09-10T05:02:41.420Z,14.34
2022-09-10T05:04:58.251Z,14.31
2022-09-10T05:07:15.160Z,14.32
2022-09-10T05:09:31.990Z,14.31
2022-09-10T05:11:48.838Z,14.29
2022-09-10T05:14:05.719Z,14.34
2022-09-10T05:16:22.857Z,14.33
2022-09-10T05:18:39.845Z,14.38
2022-09-10T05:20:56.798Z,14.34
2022-09-10T05:23:13.648Z,14.32
2022-09-10T05:25:30.459Z,14.33
2022-09-10T05:27:47.400Z,14.32
2022-09-10T05:30:04.333Z,14.31
2022-09-10T05:32:21.160Z,14.31
2022-09-10T05:34:38.023Z,14.32
2022-09-10T05:36:54.865Z,14.31
2022-09-10T05:39:11.681Z,14.34
2022-09-10T05:41:28.603Z,14.38
2022-09-10T05:43:45.548Z,14.39
2022-09-10T05:46:02.469Z,14.42
2022-09-10T05:48:19.352Z,14.43
2022-09-10T05:50:36.199Z,14.47
2022-09-10T05:52:53.042Z,14.50
2022-09-10T05:55:09.938Z,14.48
2022-09-10T05:57:26.847Z,14.56
2022-09-10T05:59:43.685Z,14.61
2022-09-10T06:02:00.633Z,14.67
2022-09-10T06:04:17.554Z,14.66
2022-09-10T06:06:34.441Z,14.67
2022-09-10T06:08:51.277Z,14.72
2022-09-10T06:11:08.116Z,14.73
2022-09-10T06:13:25.004Z,14.76
2022-09-10T06:15:41.851Z,14.80
2022-09-10T06:17:58.721Z,14.82
2022-09-10T06:20:15.556Z,14.83
2022-09-10T06:22:32.435Z,14.92
2022-09-10T06:24:49.258Z,14.94
2022-09-10T06:27:06.065Z,14.98
2022-09-10T06:29:22.965Z,15.01
2022-09-10T06:31:39.808Z,15.07
2022-09-10T06:33:56.624Z,15.16
2022-09-10T06:36:13.478Z,15.18
2022-09-10T06:38:30.338Z,15.23
2022-09-10T06:40:47.161Z,15.25
2022-09-10T06:43:04.047Z,15.34
2022-09-10T06:45:20.933Z,15.39
2022-09-10T06:50:14.664Z,15.41
2022-09-10T06:52:31.499Z,15.42
2022-09-10T06:54:48.361Z,15.44
2022-09-10T06:57:05.217Z,15.48
2022-09-10T06:59:22.049Z,15.49
2022-09-10T07:01:38.981Z,15.52
2022-09-10T07:03:55.859Z,15.54
2022-09-10T07:06:12.683Z,15.60
2022-09-10T07:08:29.569Z,15.59
2022-09-10T07:10:46.431Z,15.63
2022-09-10T07:13:03.290Z,15.72
2022-09-10T07:15:20.146Z,15.74
2022-09-10T07:17:37.059Z,15.72
2022-09-10T07:19:53.920Z,15.75
2022-09-10T07:22:10.744Z,15.79
2022-09-10T07:24:27.629Z,15.82
2022-09-10T07:26:44.467Z,15.90
2022-09-10T07:29:01.346Z,15.98
2022-09-10T07:31:18.212Z,16.06
2022-09-10T07:33:35.038Z,16.08
2022-09-10T07:35:51.949Z,16.13
2022-09-10T07:38:08.791Z,16.14
2022-09-10T07:40:25.779Z,16.19
2022-09-10T07:42:42.660Z,16.21
2022-09-10T07:44:59.495Z,16.25
2022-09-10T07:47:16.390Z,16.20
2022-09-10T07:49:33.225Z,16.23
2022-09-10T07:51:50.123Z,16.24
2022-09-10T07:54:07.000Z,16.25
2022-09-10T07:56:23.871Z,16.26
2022-09-10T07:58:40.806Z,16.36
2022-09-10T08:00:57.782Z,16.45
2022-09-10T08:03:14.773Z,16.55
2022-09-10T08:05:31.599Z,16.66
2022-09-10T08:07:48.440Z,16.75
2022-09-10T08:10:05.298Z,16.83
2022-09-10T08:12:22.199Z,16.99
2022-09-10T08:14:39.064Z,17.08
2022-09-10T08:16:55.939Z,17.14
2022-09-10T08:19:12.757Z,17.13
2022-09-10T08:21:29.634Z,17.13
2022-09-10T08:23:46.469Z,17.15
2022-09-10T08:26:03.347Z,17.19
2022-09-10T08:28:24.807Z,17.32
2022-09-10T08:30:42.342Z,17.26
2022-09-10T08:32:59.195Z,17.22
2022-09-10T08:35:16.025Z,17.18
2022-09-10T08:37:32.911Z,17.22
2022-09-10T08:39:49.791Z,17.20
2022-09-10T08:42:06.635Z,17.30
2022-09-10T08:44:23.729Z,17.33
2022-09-10T08:46:40.555Z,17.33
2022-09-10T08:48:58.503Z,17.45
2022-09-10T08:51:15.472Z,17.51
2022-09-10T08:53:32.390Z,17.54
2022-09-10T08:55:49.211Z,17.55
2022-09-10T08:58:06.055Z,17.51
2022-09-10T09:00:22.930Z,17.33
2022-09-10T09:02:48.716Z,17.43
2022-09-10T09:05:06.552Z,17.34
2022-09-10T09:07:23.587Z,17.26
2022-09-10T09:09:40.425Z,17.16
2022-09-10T09:11:57.299Z,17.24
2022-09-10T09:14:14.151Z,17.33
2022-09-10T09:16:31.047Z,17.19
2022-09-10T09:18:47.870Z,17.15
2022-09-10T09:21:04.733Z,17.08
2022-09-10T09:23:21.638Z,17.04
2022-09-10T09:25:38.525Z,17.04
2022-09-10T09:27:55.391Z,17.07
2022-09-10T09:30:12.281Z,17.17
2022-09-10T09:32:29.282Z,17.26
2022-09-10T09:34:46.087Z,17.34
2022-09-10T09:37:02.964Z,17.26
2022-09-10T09:39:22.846Z,17.29
2022-09-10T09:41:41.817Z,17.25
2022-09-10T09:43:58.764Z,17.34
2022-09-10T09:46:15.838Z,17.39
2022-09-10T09:48:32.856Z,17.39
2022-09-10T09:50:49.904Z,17.52
2022-09-10T09:53:06.771Z,17.50
2022-09-10T09:55:23.634Z,17.46
2022-09-10T09:57:40.468Z,17.44
2022-09-10T09:59:57.416Z,17.35
2022-09-10T10:02:14.447Z,17.44
2022-09-10T10:04:31.532Z,17.37
2022-09-10T10:06:48.456Z,17.32
2022-09-10T10:09:05.362Z,17.33
2022-09-10T10:11:22.264Z,17.37
2022-09-10T10:13:39.186Z,17.52
2022-09-10T10:15:56.110Z,17.83
2022-09-10T10:18:12.991Z,18.19
2022-09-10T10:20:29.877Z,18.58
2022-09-10T10:22:46.992Z,18.95
2022-09-10T10:25:03.847Z,19.42
2022-09-10T10:27:20.704Z,19.66
2022-09-10T10:29:37.625Z,19.93
2022-09-10T10:31:54.498Z,20.03
2022-09-10T10:34:11.490Z,20.18
2022-09-10T10:36:28.359Z,20.13
2022-09-10T10:38:45.378Z,20.02
2022-09-10T10:41:02.312Z,19.82
2022-09-10T10:43:19.185Z,19.74
2022-09-10T10:45:36.103Z,19.59
2022-09-10T10:47:53.008Z,19.42
2022-09-10T10:50:09.881Z,19.28
2022-09-10T10:52:26.821Z,19.20
2022-09-10T10:54:43.656Z,19.12
2022-09-10T10:57:00.565Z,19.12
2022-09-10T10:59:17.466Z,19.07
2022-09-10T11:01:34.419Z,19.13
2022-09-10T11:03:51.369Z,19.02
2022-09-10T11:06:08.251Z,18.96
2022-09-10T11:08:25.121Z,18.91
2022-09-10T11:10:42.027Z,18.85
2022-09-10T11:12:58.923Z,18.84
2022-09-10T11:15:15.791Z,18.95
2022-09-10T11:17:32.673Z,19.07
2022-09-10T11:20:00.597Z,19.22
2022-09-10T11:22:26.438Z,19.51
2022-09-10T11:24:43.556Z,19.64
2022-09-10T11:27:00.405Z,19.72
2022-09-10T11:29:17.312Z,19.90
2022-09-10T11:31:34.183Z,19.93
2022-09-10T11:33:51.073Z,19.67
2022-09-10T11:36:07.934Z,19.68
2022-09-10T11:38:24.823Z,19.63
2022-09-10T11:40:41.669Z,19.54
2022-09-10T11:42:58.586Z,19.33
2022-09-10T11:45:15.529Z,19.16
2022-09-10T11:47:32.452Z,19.27
2022-09-10T11:49:49.342Z,19.44
2022-09-10T11:52:06.273Z,19.55
2022-09-10T11:54:23.175Z,19.83
2022-09-10T11:56:40.135Z,20.20
2022-09-10T11:58:57.001Z,20.62
2022-09-10T12:01:13.868Z,20.96
2022-09-10T12:03:30.888Z,21.49
2022-09-10T12:05:47.757Z,21.92
2022-09-10T12:08:04.595Z,22.14
2022-09-10T12:10:21.485Z,22.24
2022-09-10T12:12:38.387Z,22.11
2022-09-10T12:14:56.266Z,22.01
2022-09-10T12:17:13.186Z,22.19
2022-09-10T12:19:30.064Z,22.08
2022-09-10T12:21:46.946Z,22.01
2022-09-10T12:24:03.860Z,21.81
2022-09-10T12:26:20.770Z,21.94
2022-09-10T12:28:37.681Z,21.78
2022-09-10T12:30:54.672Z,21.95
2022-09-10T12:33:11.582Z,21.92
2022-09-10T12:35:28.492Z,21.96
2022-09-10T12:37:45.438Z,21.94
2022-09-10T12:40:02.495Z,21.57
2022-09-10T12:42:19.552Z,21.57
2022-09-10T12:44:36.479Z,21.83
2022-09-10T12:46:53.443Z,22.08
2022-09-10T12:49:10.313Z,22.14
2022-09-10T12:51:27.195Z,22.19
2022-09-10T12:53:44.116Z,22.01
2022-09-10T12:56:00.982Z,21.88
2022-09-10T12:58:17.864Z,21.97
2022-09-10T13:00:34.755Z,21.97
2022-09-10T13:02:51.601Z,21.71
2022-09-10T13:05:08.529Z,21.68
2022-09-10T13:07:25.361Z,21.59
2022-09-10T13:09:42.226Z,21.40
2022-09-10T13:11:59.103Z,21.17
2022-09-10T13:14:15.986Z,20.96
2022-09-10T13:16:33.086Z,20.91
2022-09-10T13:18:51.890Z,20.96
2022-09-10T13:21:10.725Z,20.96
2022-09-10T13:23:27.599Z,21.05
2022-09-10T13:25:44.507Z,21.18
2022-09-10T13:28:01.350Z,21.26
2022-09-10T13:30:18.230Z,21.20
2022-09-10T13:32:35.133Z,21.17
2022-09-10T13:34:52.003Z,21.33
2022-09-10T13:37:08.912Z,21.38
2022-09-10T13:39:25.746Z,21.48
2022-09-10T13:41:42.582Z,21.54
2022-09-10T13:44:01.190Z,21.53
2022-09-10T13:46:18.459Z,21.67
2022-09-10T13:48:35.416Z,21.63
2022-09-10T13:50:52.308Z,21.61
2022-09-10T13:53:09.179Z,21.61
2022-09-10T13:55:26.073Z,21.71
2022-09-10T13:57:42.916Z,21.91
2022-09-10T13:59:59.821Z,21.96
2022-09-10T14:02:16.772Z,22.23
2022-09-10T14:04:33.682Z,22.28
2022-09-10T14:06:50.530Z,22.10
2022-09-10T14:09:07.426Z,21.97
2022-09-10T14:11:24.365Z,21.81
2022-09-10T14:13:41.425Z,21.91
2022-09-10T14:15:58.505Z,22.02
2022-09-10T14:18:15.485Z,22.24
2022-09-10T14:20:32.369Z,22.37
2022-09-10T14:22:49.260Z,22.41
2022-09-10T14:25:06.184Z,22.38
2022-09-10T14:27:23.015Z,21.94
2022-09-10T14:29:39.925Z,21.60
2022-09-10T14:31:56.782Z,21.62
2022-09-10T14:34:13.644Z,21.44
2022-09-10T14:36:30.556Z,21.37
2022-09-10T14:38:47.439Z,21.08
2022-09-10T14:41:08.556Z,20.96
2022-09-10T14:43:25.703Z,20.77
2022-09-10T14:45:42.630Z,20.53
2022-09-10T14:47:59.470Z,20.38
2022-09-10T14:50:16.360Z,20.19
2022-09-10T14:52:33.261Z,20.18
2022-09-10T14:54:50.165Z,19.94
2022-09-10T14:57:07.021Z,19.91
2022-09-10T14:59:23.921Z,19.86
2022-09-10T15:01:40.810Z,19.91
2022-09-10T15:03:57.704Z,19.85
2022-09-10T15:06:14.566Z,19.95
2022-09-10T15:08:31.413Z,19.98
2022-09-10T15:10:48.274Z,20.04
2022-09-10T15:13:05.109Z,20.08
2022-09-10T15:15:22.015Z,20.14
2022-09-10T15:17:38.903Z,20.20
2022-09-10T15:19:55.855Z,20.34
2022-09-10T15:22:12.734Z,20.61
2022-09-10T15:24:29.658Z,20.91
2022-09-10T15:26:46.531Z,21.24
2022-09-10T15:29:03.412Z,21.50
2022-09-10T15:31:20.286Z,21.42
2022-09-10T15:33:37.167Z,21.29
2022-09-10T15:35:54.022Z,21.11
2022-09-10T15:38:10.921Z,20.98
2022-09-10T15:40:27.841Z,20.70
2022-09-10T15:42:44.708Z,20.60
2022-09-10T15:45:01.657Z,20.32
2022-09-10T15:47:18.579Z,20.30
2022-09-10T15:49:35.495Z,20.18
2022-09-10T15:51:52.400Z,20.08
2022-09-10T15:54:09.313Z,20.05
2022-09-10T15:56:26.153Z,19.97
2022-09-10T15:58:43.008Z,19.77
2022-09-10T16:01:00.094Z,19.68
2022-09-10T16:03:16.974Z,19.64
2022-09-10T16:05:33.826Z,19.60
2022-09-10T16:07:50.705Z,19.44
2022-09-10T16:10:07.599Z,19.44
2022-09-10T16:12:24.544Z,19.40
2022-09-10T16:14:41.466Z,19.41
2022-09-10T16:16:58.358Z,19.47
2022-09-10T16:19:15.242Z,19.41
2022-09-10T16:21:32.156Z,19.39
2022-09-10T16:23:49.052Z,19.41
2022-09-10T16:26:05.952Z,19.40
2022-09-10T16:28:22.933Z,19.35
2022-09-10T16:30:39.786Z,19.28
2022-09-10T16:32:56.704Z,19.22
2022-09-10T16:35:13.608Z,19.21
2022-09-10T16:37:30.500Z,19.16
2022-09-10T16:39:47.384Z,19.05
2022-09-10T16:42:04.322Z,18.99
2022-09-10T16:44:21.208Z,18.90
2022-09-10T16:46:38.114Z,18.80
2022-09-10T16:48:55.023Z,18.79
2022-09-10T16:51:11.905Z,18.79
2022-09-10T16:53:28.831Z,18.70
2022-09-10T16:55:45.735Z,18.70
2022-09-10T16:58:02.597Z,18.61
2022-09-10T17:00:19.515Z,18.49
2022-09-10T17:02:36.635Z,18.39
2022-09-10T17:04:53.470Z,18.40
2022-09-10T17:07:10.379Z,18.33
2022-09-10T17:09:27.302Z,18.27
2022-09-10T17:11:44.223Z,18.22
2022-09-10T17:14:01.050Z,18.14
2022-09-10T17:16:17.990Z,18.08
2022-09-10T17:18:35.053Z,18.08
2022-09-10T17:20:51.876Z,18.07
2022-09-10T17:23:08.767Z,18.01
2022-09-10T17:25:25.645Z,17.97
2022-09-10T17:27:42.508Z,17.96
2022-09-10T17:29:59.519Z,17.92
2022-09-10T17:32:16.333Z,17.86
2022-09-10T17:34:33.206Z,17.84
2022-09-10T17:36:50.092Z,17.81
2022-09-10T17:39:06.962Z,17.82
2022-09-10T17:41:23.826Z,17.79
2022-09-10T17:43:40.836Z,17.76
2022-09-10T17:45:57.866Z,17.72
2022-09-10T17:48:14.706Z,17.74
2022-09-10T17:50:31.638Z,17.72
2022-09-10T17:52:48.501Z,17.67
2022-09-10T17:55:05.389Z,17.68
2022-09-10T17:57:22.297Z,17.60
2022-09-10T17:59:39.120Z,17.59
2022-09-10T18:01:55.990Z,17.55
2022-09-10T18:04:12.884Z,17.60
2022-09-10T18:06:29.767Z,17.51
2022-09-10T18:08:46.651Z,17.43
2022-09-10T18:11:03.581Z,17.38
2022-09-10T18:13:20.475Z,17.34
2022-09-10T18:15:37.413Z,17.29
2022-09-10T18:17:54.288Z,17.30
2022-09-10T18:20:11.145Z,17.24
2022-09-10T18:22:27.986Z,17.23
2022-09-10T18:24:44.846Z,17.23
2022-09-10T18:27:01.758Z,17.22
2022-09-10T18:29:18.634Z,17.26
2022-09-10T18:31:35.561Z,17.23
2022-09-10T18:33:52.931Z,17.18
2022-09-10T18:36:09.876Z,17.13
2022-09-10T18:38:26.727Z,17.12
2022-09-10T18:40:43.617Z,17.12
2022-09-10T18:43:00.471Z,17.09
2022-09-10T18:45:17.381Z,17.03
2022-09-10T18:47:44.671Z,17.00
2022-09-10T18:50:02.004Z,17.03
2022-09-10T18:52:18.943Z,17.04
2022-09-10T18:54:35.845Z,17.07
2022-09-10T18:56:52.715Z,17.15
2022-09-10T18:59:09.596Z,17.05
2022-09-10T19:01:26.516Z,17.02
2022-09-10T19:03:43.466Z,16.99
2022-09-10T19:06:00.309Z,16.99
2022-09-10T19:08:17.209Z,16.96
2022-09-10T19:10:34.081Z,16.96
2022-09-10T19:12:50.926Z,16.93
2022-09-10T19:15:07.875Z,16.88
2022-09-10T19:17:24.722Z,16.85
2022-09-10T19:19:41.597Z,16.81
2022-09-10T19:21:58.435Z,16.77
2022-09-10T19:24:15.347Z,16.73
2022-09-10T19:26:32.178Z,16.71
2022-09-10T19:28:49.044Z,16.66
2022-09-10T19:31:06.009Z,16.66
2022-09-10T19:33:22.952Z,16.66
2022-09-10T19:35:39.779Z,16.58
2022-09-10T19:37:56.709Z,16.49
2022-09-10T19:40:13.655Z,16.49
2022-09-10T19:42:30.770Z,16.52
2022-09-10T19:44:47.643Z,16.48
2022-09-10T19:47:04.533Z,16.50
2022-09-10T19:49:21.395Z,16.47
2022-09-10T19:51:38.242Z,16.44
2022-09-10T19:53:55.105Z,16.50
2022-09-10T19:56:11.966Z,16.44
2022-09-10T19:58:28.816Z,16.44
2022-09-10T20:00:47.088Z,16.38
2022-09-10T20:03:04.147Z,16.33
2022-09-10T20:05:21.098Z,16.34
2022-09-10T20:07:37.938Z,16.31
2022-09-10T20:09:54.853Z,16.29
2022-09-10T20:12:11.725Z,16.28
2022-09-10T20:14:28.647Z,16.27
2022-09-10T20:16:45.477Z,16.27
2022-09-10T20:19:02.391Z,16.23
2022-09-10T20:21:19.256Z,16.22
2022-09-10T20:23:36.094Z,16.20
2022-09-10T20:25:52.966Z,16.18
2022-09-10T20:28:09.831Z,16.13
2022-09-10T20:30:26.695Z,16.16
2022-09-10T20:32:43.599Z,16.17
2022-09-10T20:35:00.656Z,16.20
2022-09-10T20:37:17.477Z,16.17
2022-09-10T20:39:34.395Z,16.17
2022-09-10T20:41:51.291Z,16.16
2022-09-10T20:44:08.153Z,16.20
2022-09-10T20:46:25.095Z,16.19
2022-09-10T20:48:45.860Z,16.17
2022-09-10T20:51:05.298Z,16.09
2022-09-10T20:53:22.207Z,16.11
2022-09-10T20:55:39.042Z,16.06
2022-09-10T20:57:55.881Z,16.03
2022-09-10T21:00:12.776Z,15.97
2022-09-10T21:02:29.721Z,15.98
2022-09-10T21:04:46.633Z,15.93
2022-09-10T21:07:03.485Z,15.88
2022-09-10T21:09:20.430Z,15.86
2022-09-10T21:11:37.281Z,15.85
2022-09-10T21:13:54.161Z,15.81
2022-09-10T21:16:11.010Z,15.81
2022-09-10T21:18:27.838Z,15.74
2022-09-10T21:20:44.703Z,15.74
2022-09-10T21:23:01.572Z,15.82
2022-09-10T21:25:18.546Z,15.81
2022-09-10T21:27:35.407Z,15.86
2022-09-10T21:29:52.255Z,15.84
2022-09-10T21:32:09.157Z,15.80
2022-09-10T21:34:26.072Z,15.80
2022-09-10T21:36:42.920Z,15.84
2022-09-10T21:39:00.171Z,15.81
2022-09-10T21:41:17.059Z,15.80
2022-09-10T21:43:34.060Z,15.80
2022-09-10T21:45:50.937Z,15.79
2022-09-10T21:48:07.843Z,15.79
2022-09-10T21:50:24.757Z,15.79
2022-09-10T21:52:41.596Z,15.77
2022-09-10T21:54:58.498Z,15.78
2022-09-10T21:57:15.382Z,15.76
2022-09-10T21:59:32.320Z,15.77
2022-09-10T22:01:49.300Z,15.77
2022-09-10T22:04:06.337Z,15.77
2022-09-10T22:06:23.233Z,15.77
2022-09-10T22:08:40.214Z,15.77
2022-09-10T22:10:57.177Z,15.84
2022-09-10T22:13:14.049Z,15.87
2022-09-10T22:15:30.952Z,15.81
2022-09-10T22:17:47.794Z,15.86
2022-09-10T22:20:04.630Z,15.79
2022-09-10T22:22:21.528Z,15.75
2022-09-10T22:24:38.455Z,15.67
2022-09-10T22:26:55.354Z,15.62
2022-09-10T22:29:12.183Z,15.54
2022-09-10T22:31:29.428Z,15.47
2022-09-10T22:33:46.812Z,15.46
2022-09-10T22:36:03.669Z,15.42
2022-09-10T22:38:20.554Z,15.40
2022-09-10T22:40:37.408Z,15.35
2022-09-10T22:42:54.330Z,15.29
2022-09-10T22:45:11.239Z,15.31
2022-09-10T22:47:28.112Z,15.28
2022-09-10T22:49:45.029Z,15.22
2022-09-10T22:52:01.938Z,15.20
2022-09-10T22:54:18.790Z,15.14
2022-09-10T22:56:35.690Z,15.09
2022-09-10T22:58:52.586Z,15.07
2022-09-10T23:01:09.507Z,15.06
2022-09-10T23:03:26.437Z,15.00
2022-09-10T23:05:43.285Z,14.99
2022-09-10T23:08:01.489Z,15.01
2022-09-10T23:10:18.437Z,14.97
2022-09-10T23:12:35.343Z,14.94
2022-09-10T23:14:52.281Z,14.92
2022-09-10T23:17:09.137Z,14.91
2022-09-10T23:19:26.013Z,14.86
2022-09-10T23:21:42.851Z,14.86
2022-09-10T23:23:59.802Z,14.84
2022-09-10T23:26:16.642Z,14.78
2022-09-10T23:28:33.577Z,14.73
2022-09-10T23:30:50.458Z,14.70
2022-09-10T23:33:07.329Z,14.66
2022-09-10T23:35:24.130Z,14.64
2022-09-10T23:37:40.973Z,14.63
2022-09-10T23:39:57.894Z,14.62
2022-09-10T23:42:14.835Z,14.58
2022-09-10T23:44:31.694Z,14.55
2022-09-10T23:46:48.656Z,14.49
2022-09-10T23:49:05.560Z,14.47
2022-09-10T23:51:22.403Z,14.42
2022-09-10T23:53:39.335Z,14.39
2022-09-10T23:55:56.255Z,14.38
2022-09-10T23:58:15.448Z,14.36
